createdAt,value
2019-03-17T00:04:31.783Z,999.90
2019-03-17T00:09:33.278Z,999.90
2019-03-17T00:14:37.055Z,999.90
2019-03-17T00:19:40.947Z,999.90
2019-03-17T00:24:44.742Z,999.90
2019-03-17T00:29:48.809Z,999.90
2019-03-17T00:34:57.007Z,999.90
2019-03-17T00:40:01.095Z,999.90
2019-03-17T00:45:05.912Z,999.90
2019-03-17T00:50:09.919Z,999.90
2019-03-17T00:55:13.911Z,982.67
2019-03-17T01:00:17.847Z,992.83
2019-03-17T01:05:21.936Z,965.93
2019-03-17T01:10:25.942Z,999.90
2019-03-17T01:15:31.755Z,999.90
2019-03-17T01:20:35.495Z,979.13
2019-03-17T01:25:39.206Z,999.90
2019-03-17T01:30:42.955Z,984.43
2019-03-17T01:35:46.683Z,980.33
2019-03-17T01:40:50.370Z,999.90
2019-03-17T01:45:54.134Z,986.67
2019-03-17T01:50:57.841Z,999.90
2019-03-17T01:56:01.568Z,912.23
2019-03-17T02:01:06.283Z,999.90
2019-03-17T02:06:09.979Z,885.10
2019-03-17T02:11:13.687Z,999.90
2019-03-17T02:16:17.955Z,972.67
2019-03-17T02:21:21.674Z,969.40
2019-03-17T02:26:25.383Z,999.90
2019-03-17T02:31:29.363Z,999.90
2019-03-17T02:36:33.338Z,965.80
2019-03-17T02:41:37.078Z,986.67
2019-03-17T02:46:41.043Z,977.50
2019-03-17T02:51:44.763Z,965.13
2019-03-17T02:56:48.727Z,966.23
2019-03-17T03:01:52.442Z,989.77
2019-03-17T03:06:56.153Z,999.90
2019-03-17T03:11:59.876Z,962.07
2019-03-17T03:17:03.583Z,946.70
2019-03-17T03:22:07.311Z,959.43
2019-03-17T03:27:11.026Z,999.90
2019-03-17T03:32:14.833Z,951.50
2019-03-17T03:37:18.778Z,999.90
2019-03-17T03:42:22.613Z,973.33
2019-03-17T03:47:26.360Z,999.90
2019-03-17T03:52:30.084Z,929.20
2019-03-17T03:57:34.055Z,999.90
2019-03-17T04:02:37.790Z,966.13
2019-03-17T04:07:41.630Z,999.90
2019-03-17T04:12:45.625Z,999.90
2019-03-17T04:17:49.362Z,999.90
2019-03-17T04:22:53.087Z,962.00
2019-03-17T04:27:56.876Z,999.90
2019-03-17T04:33:00.707Z,999.90
2019-03-17T04:38:04.687Z,999.90
2019-03-17T04:43:08.667Z,983.47
2019-03-17T04:48:12.630Z,999.90
2019-03-17T04:53:16.339Z,984.57
2019-03-17T04:58:20.091Z,999.90
2019-03-17T05:03:23.870Z,992.33
2019-03-17T05:08:28.095Z,999.90
2019-03-17T05:13:31.834Z,988.70
2019-03-17T05:18:35.865Z,968.23
2019-03-17T05:23:39.668Z,935.27
2019-03-17T05:28:43.692Z,979.10
2019-03-17T05:33:47.414Z,995.10
2019-03-17T05:38:51.138Z,999.90
2019-03-17T05:43:55.127Z,999.90
2019-03-17T05:48:58.837Z,999.90
2019-03-17T05:54:02.593Z,999.53
2019-03-17T05:59:06.390Z,999.90
2019-03-17T06:04:11.209Z,999.90
2019-03-17T06:09:14.995Z,998.40
2019-03-17T06:14:19.019Z,999.90
2019-03-17T06:19:22.730Z,992.43
2019-03-17T06:24:26.451Z,999.90
2019-03-17T06:29:30.425Z,999.90
2019-03-17T06:34:34.474Z,999.90
2019-03-17T06:39:38.297Z,999.90
2019-03-17T06:44:42.017Z,999.90
2019-03-17T06:49:45.759Z,999.90
2019-03-17T06:54:49.728Z,999.90
2019-03-17T06:59:53.691Z,999.90
2019-03-17T07:04:57.737Z,999.90
2019-03-17T07:10:01.507Z,999.90
2019-03-17T07:15:05.605Z,999.90
2019-03-17T07:20:09.730Z,999.90
2019-03-17T07:25:13.713Z,999.90
2019-03-17T07:30:17.862Z,999.90
2019-03-17T07:35:21.683Z,999.90
2019-03-17T07:40:25.402Z,999.90
2019-03-17T07:45:29.513Z,999.90
2019-03-17T07:50:33.508Z,999.90
2019-03-17T07:55:37.478Z,999.90
2019-03-17T08:00:41.198Z,999.90
2019-03-17T08:05:45.010Z,999.90
2019-03-17T08:10:48.739Z,999.90
2019-03-17T08:15:52.931Z,999.90
2019-03-17T08:20:56.702Z,999.90
2019-03-17T08:26:00.435Z,999.90
2019-03-17T08:31:04.197Z,999.90
2019-03-17T08:36:08.198Z,999.90
2019-03-17T08:41:11.926Z,999.90
2019-03-17T08:46:15.653Z,999.90
2019-03-17T08:51:19.752Z,999.90
2019-03-17T08:56:23.510Z,999.90
2019-03-17T09:01:28.290Z,999.90
2019-03-17T09:06:32.270Z,999.90
2019-03-17T09:11:37.111Z,999.90
2019-03-17T09:16:41.443Z,999.90
2019-03-17T09:21:45.169Z,999.90
2019-03-17T09:26:48.874Z,999.90
2019-03-17T09:31:52.876Z,999.90
2019-03-17T09:36:56.601Z,999.90
2019-03-17T09:42:00.562Z,999.90
2019-03-17T09:47:04.581Z,999.90
2019-03-17T09:52:11.921Z,999.90
2019-03-17T09:57:15.711Z,999.90
2019-03-17T10:02:19.490Z,999.90
2019-03-17T10:07:24.227Z,999.90
2019-03-17T10:12:28.199Z,999.90
2019-03-17T10:17:32.164Z,999.90
2019-03-17T10:22:35.990Z,999.90
2019-03-17T10:27:39.787Z,999.90
2019-03-17T10:32:43.526Z,999.90
2019-03-17T10:37:48.579Z,999.90
2019-03-17T10:42:58.246Z,999.90
2019-03-17T10:48:05.479Z,999.90
2019-03-17T10:53:10.070Z,999.90
2019-03-17T10:58:14.177Z,999.90
2019-03-17T11:03:17.947Z,999.90
2019-03-17T11:08:22.175Z,999.90
2019-03-17T11:13:27.958Z,999.90
2019-03-17T11:18:32.527Z,999.90
2019-03-17T11:23:37.673Z,999.90
2019-03-17T11:28:43.481Z,999.90
2019-03-17T11:33:52.390Z,999.90
2019-03-17T11:38:57.708Z,999.90
2019-03-17T11:44:03.951Z,999.90
2019-03-17T11:49:14.654Z,999.90
2019-03-17T11:54:23.126Z,984.17
2019-03-17T11:59:29.190Z,999.90
2019-03-17T12:04:34.769Z,999.90
2019-03-17T12:09:49.601Z,999.90
2019-03-17T12:14:47.059Z,999.90
2019-03-17T12:19:50.838Z,999.90
2019-03-17T12:24:54.612Z,999.90
2019-03-17T12:29:58.585Z,999.90
2019-03-17T12:35:02.576Z,999.90
2019-03-17T12:40:06.486Z,999.90
2019-03-17T12:45:10.578Z,999.90
2019-03-17T12:50:14.510Z,999.90
2019-03-17T12:55:18.472Z,999.90
2019-03-17T13:00:28.226Z,999.90
2019-03-17T13:05:31.940Z,999.90
2019-03-17T13:10:35.740Z,999.90
2019-03-17T13:15:39.462Z,999.90
2019-03-17T13:20:43.193Z,971.37
2019-03-17T13:25:47.181Z,999.90
2019-03-17T13:30:50.910Z,996.00
2019-03-17T13:35:54.717Z,999.90
2019-03-17T13:40:58.449Z,999.90
2019-03-17T13:46:02.421Z,979.97
2019-03-17T13:51:06.125Z,992.07
2019-03-17T13:56:09.838Z,998.83
2019-03-17T14:01:13.578Z,999.90
2019-03-17T14:06:17.371Z,999.90
2019-03-17T14:11:21.349Z,999.90
2019-03-17T14:16:25.073Z,963.33
2019-03-17T14:21:28.797Z,999.90
2019-03-17T14:26:32.531Z,999.90
2019-03-17T14:31:36.260Z,999.43
2019-03-17T14:36:40.220Z,979.30
2019-03-17T14:41:43.935Z,999.90
2019-03-17T14:46:52.514Z,999.90
2019-03-17T14:51:56.510Z,999.90
2019-03-17T14:57:00.860Z,999.90
2019-03-17T15:02:04.933Z,999.83
2019-03-17T15:07:08.938Z,986.50
2019-03-17T15:12:13.110Z,999.90
2019-03-17T15:17:16.874Z,999.90
2019-03-17T15:22:20.602Z,999.90
2019-03-17T15:27:24.377Z,963.47
2019-03-17T15:32:28.440Z,983.33
2019-03-17T15:37:32.411Z,928.63
2019-03-17T15:42:36.739Z,898.67
2019-03-17T15:47:41.237Z,891.43
2019-03-17T15:52:45.477Z,996.47
2019-03-17T15:57:49.239Z,961.27
2019-03-17T16:02:53.207Z,939.47
2019-03-17T16:07:57.025Z,999.90
2019-03-17T16:13:00.999Z,936.20
2019-03-17T16:18:05.051Z,852.87
2019-03-17T16:23:09.358Z,910.13
2019-03-17T16:28:13.590Z,891.57
2019-03-17T16:33:17.338Z,850.90
2019-03-17T16:38:21.057Z,939.23
2019-03-17T16:43:25.058Z,906.07
2019-03-17T16:48:28.792Z,914.73
2019-03-17T16:53:32.507Z,939.63
2019-03-17T16:58:36.233Z,915.90
2019-03-17T17:03:40.262Z,977.43
2019-03-17T17:08:44.474Z,940.23
2019-03-17T17:13:48.686Z,962.97
2019-03-17T17:18:52.678Z,973.37
2019-03-17T17:23:56.391Z,962.47
2019-03-17T17:29:00.287Z,942.30
2019-03-17T17:34:04.364Z,966.77
2019-03-17T17:39:09.395Z,999.90
2019-03-17T17:44:13.106Z,990.97
2019-03-17T17:49:16.904Z,950.40
2019-03-17T17:54:20.637Z,971.77
2019-03-17T17:59:25.538Z,999.90
2019-03-17T18:04:29.335Z,905.37
2019-03-17T18:09:33.051Z,990.57
2019-03-17T18:14:37.030Z,861.60
2019-03-17T18:19:41.082Z,795.90
2019-03-17T18:24:45.055Z,840.00
2019-03-17T18:29:48.778Z,858.03
2019-03-17T18:34:52.947Z,875.53
2019-03-17T18:39:56.975Z,790.47
2019-03-17T18:45:00.698Z,794.40
2019-03-17T18:50:05.370Z,999.90
2019-03-17T18:55:09.442Z,999.90
2019-03-17T19:00:15.119Z,974.77
2019-03-17T19:05:20.437Z,939.80
2019-03-17T19:10:24.334Z,932.27
2019-03-17T19:15:31.378Z,898.23
2019-03-17T19:20:36.180Z,940.17
2019-03-17T19:25:40.231Z,999.90
2019-03-17T19:30:44.090Z,963.63
2019-03-17T19:35:47.844Z,992.80
2019-03-17T19:40:51.869Z,999.90
2019-03-17T19:46:00.486Z,974.80
2019-03-17T19:51:05.010Z,999.90
2019-03-17T19:56:10.073Z,946.73
2019-03-17T20:01:17.438Z,843.33
2019-03-17T20:06:21.286Z,825.30
2019-03-17T20:11:25.805Z,857.03
2019-03-17T20:16:31.044Z,888.53
2019-03-17T20:21:38.973Z,738.13
2019-03-17T20:26:43.015Z,944.57
2019-03-17T20:31:46.879Z,801.57
2019-03-17T20:36:50.633Z,903.63
2019-03-17T20:41:54.719Z,795.17
2019-03-17T20:46:58.533Z,622.10
2019-03-17T20:52:02.511Z,844.67
2019-03-17T20:57:06.317Z,817.10
2019-03-17T21:02:10.179Z,914.60
2019-03-17T21:07:14.277Z,767.40
2019-03-17T21:12:18.006Z,914.93
2019-03-17T21:17:21.975Z,868.70
2019-03-17T21:22:25.955Z,663.90
2019-03-17T21:27:30.693Z,835.70
2019-03-17T21:32:34.422Z,726.80
2019-03-17T21:37:38.222Z,834.20
2019-03-17T21:42:45.407Z,858.10
2019-03-17T21:47:50.601Z,778.77
2019-03-17T21:52:57.898Z,999.53
2019-03-17T21:58:07.737Z,842.03
2019-03-17T22:03:10.835Z,941.73
2019-03-17T22:08:15.891Z,849.57
2019-03-17T22:13:20.370Z,930.20
2019-03-17T22:18:24.190Z,999.90
2019-03-17T22:23:28.003Z,854.30
2019-03-17T22:28:31.974Z,799.97
2019-03-17T22:33:35.910Z,950.17
2019-03-17T22:38:40.964Z,922.63
2019-03-17T22:43:44.734Z,942.27
2019-03-17T22:48:48.718Z,843.43
2019-03-17T22:53:52.710Z,885.77
2019-03-17T22:58:56.695Z,863.67
2019-03-17T23:04:00.458Z,817.83
2019-03-17T23:09:06.155Z,795.10
2019-03-17T23:14:09.921Z,943.50
2019-03-17T23:19:13.654Z,701.87
2019-03-17T23:24:17.381Z,954.37
2019-03-17T23:29:21.097Z,778.20
2019-03-17T23:34:24.915Z,760.57
2019-03-17T23:39:29.046Z,851.27
2019-03-17T23:44:33.115Z,719.03
2019-03-17T23:49:36.856Z,961.97
2019-03-17T23:54:40.831Z,723.93
2019-03-17T23:59:44.798Z,602.03
